createdAt,value
2019-05-15T00:01:03.113Z,7.26
2019-05-15T00:04:09.303Z,7.15
2019-05-15T00:07:13.459Z,7.12
2019-05-15T00:10:18.224Z,7.11
2019-05-15T00:13:22.591Z,7.17
2019-05-15T00:16:29.057Z,7.13
2019-05-15T00:19:32.985Z,7.04
2019-05-15T00:22:38.898Z,6.94
2019-05-15T00:25:43.459Z,6.87
2019-05-15T00:28:48.030Z,6.79
2019-05-15T00:31:52.367Z,6.83
2019-05-15T00:34:58.283Z,6.86
2019-05-15T00:38:02.670Z,6.84
2019-05-15T00:41:09.510Z,6.81
2019-05-15T00:44:13.149Z,6.75
2019-05-15T00:47:18.123Z,6.71
2019-05-15T00:50:22.578Z,6.72
2019-05-15T00:53:28.310Z,6.70
2019-05-15T00:56:32.887Z,6.70
2019-05-15T00:59:38.952Z,6.75
2019-05-15T01:02:43.181Z,6.72
2019-05-15T01:05:48.029Z,6.72
2019-05-15T01:08:52.529Z,6.76
2019-05-15T01:11:58.686Z,6.79
2019-05-15T01:15:03.057Z,6.74
2019-05-15T01:18:09.333Z,6.61
2019-05-15T01:21:13.352Z,6.52
2019-05-15T01:24:18.895Z,6.48
2019-05-15T01:27:23.453Z,6.45
2019-05-15T01:30:28.619Z,6.49
2019-05-15T01:33:33.001Z,6.53
2019-05-15T01:36:38.300Z,6.56
2019-05-15T01:39:42.677Z,6.59
2019-05-15T01:42:46.991Z,6.67
2019-05-15T01:45:51.281Z,6.67
2019-05-15T01:48:55.592Z,6.53
2019-05-15T01:51:59.879Z,6.41
2019-05-15T01:55:04.215Z,6.30
2019-05-15T01:58:09.080Z,6.20
2019-05-15T02:01:13.761Z,6.15
2019-05-15T02:04:19.675Z,6.06
2019-05-15T02:07:24.121Z,5.97
2019-05-15T02:10:29.223Z,5.94
2019-05-15T02:13:33.672Z,5.97
2019-05-15T02:16:39.318Z,5.98
2019-05-15T02:19:43.813Z,5.92
2019-05-15T02:22:48.476Z,5.84
2019-05-15T02:25:52.931Z,5.83
2019-05-15T02:28:57.194Z,5.89
2019-05-15T02:32:01.531Z,5.95
2019-05-15T02:35:05.830Z,5.97
2019-05-15T02:38:15.520Z,5.97
2019-05-15T02:41:20.157Z,5.96
2019-05-15T02:44:24.490Z,5.90
2019-05-15T02:47:29.189Z,5.88
2019-05-15T02:50:33.636Z,5.82
2019-05-15T02:53:39.567Z,5.78
2019-05-15T02:56:43.876Z,5.73
2019-05-15T02:59:49.851Z,5.70
2019-05-15T03:02:54.158Z,5.68
2019-05-15T03:06:00.171Z,5.66
2019-05-15T03:09:05.603Z,5.68
2019-05-15T03:12:09.867Z,5.69
2019-05-15T03:15:14.471Z,5.68
2019-05-15T03:18:19.400Z,5.66
2019-05-15T03:21:23.944Z,5.74
2019-05-15T03:24:29.107Z,5.82
2019-05-15T03:27:34.854Z,5.85
2019-05-15T03:31:11.390Z,5.78
2019-05-15T03:33:47.221Z,5.73
2019-05-15T03:36:53.156Z,5.73
2019-05-15T03:39:59.572Z,5.75
2019-05-15T03:43:03.844Z,5.71
2019-05-15T03:46:09.057Z,5.91
2019-05-15T03:49:13.613Z,6.54
2019-05-15T03:52:19.074Z,7.12
2019-05-15T03:55:23.728Z,7.38
2019-05-15T03:58:28.776Z,7.02
2019-05-15T04:01:42.371Z,6.71
2019-05-15T04:04:40.632Z,6.61
2019-05-15T04:07:44.907Z,6.56
2019-05-15T04:10:49.202Z,6.49
2019-05-15T04:13:55.330Z,6.41
2019-05-15T04:16:59.807Z,6.42
2019-05-15T04:20:04.545Z,6.47
2019-05-15T04:23:10.183Z,6.55
2019-05-15T04:26:15.880Z,6.51
2019-05-15T04:29:21.349Z,6.48
2019-05-15T04:32:28.599Z,6.51
2019-05-15T04:35:31.676Z,6.55
2019-05-15T04:38:39.152Z,6.63
2019-05-15T04:41:43.453Z,6.75
2019-05-15T04:44:49.543Z,6.91
2019-05-15T04:47:54.789Z,7.01
2019-05-15T04:50:59.151Z,7.11
2019-05-15T04:54:03.579Z,7.17
2019-05-15T04:57:09.255Z,7.26
2019-05-15T05:00:20.159Z,7.36
2019-05-15T05:03:24.562Z,7.51
2019-05-15T05:06:30.093Z,7.63
2019-05-15T05:09:35.267Z,7.73
2019-05-15T05:12:41.780Z,7.88
2019-05-15T05:15:45.557Z,8.03
2019-05-15T05:18:49.834Z,8.19
2019-05-15T05:21:54.341Z,8.32
2019-05-15T05:24:58.656Z,8.48
2019-05-15T05:28:02.941Z,8.65
2019-05-15T05:31:08.378Z,8.81
2019-05-15T05:34:13.451Z,8.97
2019-05-15T05:37:18.464Z,9.10
2019-05-15T05:40:22.871Z,9.23
2019-05-15T05:43:29.831Z,9.33
2019-05-15T05:46:33.284Z,9.46
2019-05-15T05:49:38.193Z,9.60
2019-05-15T05:52:42.737Z,9.68
2019-05-15T05:55:49.185Z,9.76
2019-05-15T05:58:53.229Z,9.84
2019-05-15T06:01:59.007Z,9.92
2019-05-15T06:05:04.060Z,10.03
2019-05-15T06:08:09.430Z,10.15
2019-05-15T06:11:13.694Z,10.35
2019-05-15T06:14:18.444Z,10.35
2019-05-15T06:17:22.812Z,10.36
2019-05-15T06:20:28.283Z,10.42
2019-05-15T06:23:35.637Z,10.52
2019-05-15T06:26:38.906Z,10.66
2019-05-15T06:29:43.229Z,10.84
2019-05-15T06:33:02.012Z,11.04
2019-05-15T06:35:53.647Z,11.21
2019-05-15T06:38:59.071Z,11.42
2019-05-15T06:42:03.566Z,11.65
2019-05-15T06:45:08.184Z,11.79
2019-05-15T06:48:12.614Z,11.80
2019-05-15T06:51:18.176Z,11.94
2019-05-15T06:54:22.678Z,11.94
2019-05-15T06:57:28.692Z,12.10
2019-05-15T07:00:34.909Z,12.29
2019-05-15T07:03:39.655Z,12.44
2019-05-15T07:06:44.085Z,12.56
2019-05-15T07:09:48.772Z,12.35
2019-05-15T07:12:53.142Z,12.35
2019-05-15T07:15:58.556Z,12.35
2019-05-15T07:19:02.931Z,12.48
2019-05-15T07:22:09.390Z,12.87
2019-05-15T07:25:14.066Z,13.09
2019-05-15T07:28:18.553Z,13.05
2019-05-15T07:31:22.851Z,13.41
2019-05-15T07:34:28.370Z,13.41
2019-05-15T07:37:32.967Z,13.60
2019-05-15T07:40:38.523Z,13.52
2019-05-15T07:43:43.273Z,13.58
2019-05-15T07:46:48.897Z,13.76
2019-05-15T07:49:53.451Z,13.77
2019-05-15T07:53:00.447Z,13.86
2019-05-15T07:56:04.842Z,14.05
2019-05-15T07:59:09.143Z,14.16
2019-05-15T08:02:13.429Z,14.32
2019-05-15T08:05:19.658Z,14.29
2019-05-15T08:08:23.960Z,14.42
2019-05-15T08:11:28.680Z,14.56
2019-05-15T08:14:33.269Z,14.76
2019-05-15T08:17:58.478Z,14.84
2019-05-15T08:20:43.759Z,14.78
2019-05-15T08:23:48.581Z,14.72
2019-05-15T08:26:52.941Z,14.65
2019-05-15T08:29:58.142Z,14.86
2019-05-15T08:33:02.488Z,14.92
2019-05-15T08:36:08.351Z,14.97
2019-05-15T08:39:15.330Z,14.97
2019-05-15T08:42:19.616Z,14.77
2019-05-15T08:45:28.283Z,14.89
2019-05-15T08:48:32.957Z,15.06
2019-05-15T08:51:38.125Z,15.33
2019-05-15T08:54:42.705Z,15.25
2019-05-15T08:57:55.077Z,15.15
2019-05-15T09:00:53.112Z,14.83
2019-05-15T09:03:58.189Z,14.82
2019-05-15T09:07:02.754Z,15.01
2019-05-15T09:10:09.023Z,15.18
2019-05-15T09:13:13.463Z,15.31
2019-05-15T09:16:18.532Z,15.49
2019-05-15T09:19:23.124Z,15.61
2019-05-15T09:22:29.171Z,15.54
2019-05-15T09:25:33.784Z,15.28
2019-05-15T09:28:39.043Z,15.53
2019-05-15T09:31:43.631Z,15.54
2019-05-15T09:34:54.987Z,15.75
2019-05-15T09:37:54.131Z,15.67
2019-05-15T09:40:59.878Z,15.88
2019-05-15T09:44:04.602Z,15.73
2019-05-15T09:47:09.297Z,15.82
2019-05-15T09:50:14.066Z,15.97
2019-05-15T09:53:19.011Z,15.75
2019-05-15T09:56:23.754Z,15.85
2019-05-15T09:59:28.324Z,16.19
2019-05-15T10:02:32.666Z,15.85
2019-05-15T10:05:38.920Z,15.70
2019-05-15T10:08:43.607Z,15.94
2019-05-15T10:11:49.157Z,15.92
2019-05-15T10:14:54.178Z,15.74
2019-05-15T10:17:59.678Z,15.86
2019-05-15T10:21:04.322Z,16.21
2019-05-15T10:24:09.456Z,16.28
2019-05-15T10:27:14.002Z,16.13
2019-05-15T10:30:19.076Z,16.57
2019-05-15T10:33:23.429Z,16.45
2019-05-15T10:36:28.128Z,16.52
2019-05-15T10:39:33.898Z,16.48
2019-05-15T10:42:40.256Z,16.22
2019-05-15T10:45:44.536Z,16.19
2019-05-15T10:48:49.495Z,16.50
2019-05-15T10:51:53.977Z,16.55
2019-05-15T10:55:00.937Z,16.78
2019-05-15T10:58:04.670Z,16.99
2019-05-15T11:01:11.323Z,16.95
2019-05-15T11:04:14.916Z,16.97
2019-05-15T11:07:19.633Z,17.04
2019-05-15T11:10:24.039Z,17.21
2019-05-15T11:13:28.863Z,17.22
2019-05-15T11:16:33.488Z,17.13
2019-05-15T11:19:40.498Z,17.24
2019-05-15T11:22:45.712Z,17.25
2019-05-15T11:25:52.098Z,17.17
2019-05-15T11:28:58.731Z,17.00
2019-05-15T11:32:02.704Z,17.27
2019-05-15T11:35:07.270Z,17.02
2019-05-15T11:38:11.577Z,17.10
2019-05-15T11:41:18.412Z,17.07
2019-05-15T11:44:21.831Z,17.22
2019-05-15T11:47:27.891Z,17.30
2019-05-15T11:50:33.445Z,17.58
2019-05-15T11:53:39.794Z,17.46
2019-05-15T11:56:44.014Z,16.78
2019-05-15T11:59:55.052Z,16.70
2019-05-15T12:02:54.617Z,16.82
2019-05-15T12:06:14.569Z,16.83
2019-05-15T12:09:09.108Z,17.08
2019-05-15T12:12:13.020Z,17.10
2019-05-15T12:15:19.182Z,16.73
2019-05-15T12:18:23.589Z,16.96
2019-05-15T12:21:28.643Z,17.16
2019-05-15T12:24:36.719Z,17.09
2019-05-15T12:27:40.424Z,17.34
2019-05-15T12:30:44.997Z,17.31
2019-05-15T12:33:49.546Z,17.58
2019-05-15T12:36:58.090Z,17.21
2019-05-15T13:01:47.459Z,16.41
2019-05-15T13:04:51.787Z,16.64
2019-05-15T13:07:58.025Z,16.61
2019-05-15T13:11:02.511Z,16.82
2019-05-15T13:14:08.131Z,17.04
2019-05-15T13:17:12.521Z,17.22
2019-05-15T13:20:19.575Z,17.42
2019-05-15T13:23:23.866Z,17.40
2019-05-15T13:26:28.146Z,17.22
2019-05-15T13:29:32.444Z,17.24
2019-05-15T13:32:36.712Z,17.21
2019-05-15T13:35:40.982Z,17.20
2019-05-15T13:38:45.257Z,17.61
2019-05-15T13:41:49.555Z,17.71
2019-05-15T13:44:53.808Z,17.72
2019-05-15T13:47:58.095Z,17.71
2019-05-15T13:51:02.512Z,17.68
2019-05-15T13:54:08.737Z,17.56
2019-05-15T13:57:12.830Z,17.76
2019-05-15T14:00:17.306Z,17.67
2019-05-15T14:03:21.589Z,17.87
2019-05-15T14:06:28.435Z,17.99
2019-05-15T14:09:34.493Z,17.99
2019-05-15T14:12:39.077Z,17.56
2019-05-15T14:15:43.409Z,17.45
2019-05-15T14:18:48.045Z,17.68
2019-05-15T14:21:52.418Z,17.72
2019-05-15T14:24:58.378Z,17.73
2019-05-15T14:28:02.846Z,17.80
2019-05-15T14:31:09.521Z,17.74
2019-05-15T14:34:13.159Z,17.75
2019-05-15T14:37:18.905Z,17.78
2019-05-15T14:40:23.292Z,17.50
2019-05-15T14:43:29.446Z,17.65
2019-05-15T14:46:33.884Z,17.20
2019-05-15T14:49:44.671Z,17.59
2019-05-15T14:52:44.160Z,17.16
2019-05-15T14:55:49.353Z,17.15
2019-05-15T14:58:53.694Z,17.52
2019-05-15T15:01:58.162Z,17.79
2019-05-15T15:05:02.572Z,18.00
2019-05-15T15:08:20.822Z,17.98
2019-05-15T15:11:13.033Z,17.85
2019-05-15T15:14:18.005Z,17.65
2019-05-15T15:17:22.381Z,17.96
2019-05-15T15:20:28.576Z,17.93
2019-05-15T15:23:32.997Z,18.31
2019-05-15T15:26:39.110Z,18.04
2019-05-15T15:29:43.277Z,18.28
2019-05-15T15:32:49.353Z,18.16
2019-05-15T15:35:53.985Z,18.36
2019-05-15T15:38:58.771Z,18.08
2019-05-15T15:42:03.344Z,18.05
2019-05-15T15:45:09.244Z,17.89
2019-05-15T15:48:13.714Z,17.98
2019-05-15T15:51:17.996Z,17.62
2019-05-15T15:54:22.547Z,17.99
2019-05-15T15:57:28.529Z,17.88
2019-05-15T16:00:33.023Z,17.91
2019-05-15T16:03:37.992Z,17.78
2019-05-15T16:06:42.379Z,17.63
2019-05-15T16:09:48.315Z,17.76
2019-05-15T16:12:52.753Z,18.11
2019-05-15T16:15:58.856Z,18.59
2019-05-15T16:19:03.182Z,18.85
2019-05-15T16:22:08.793Z,18.13
2019-05-15T16:25:13.731Z,17.99
2019-05-15T16:28:18.586Z,17.64
2019-05-15T16:31:22.980Z,17.42
2019-05-15T16:34:28.404Z,17.69
2019-05-15T16:37:33.144Z,18.19
2019-05-15T16:40:39.273Z,18.41
2019-05-15T16:43:44.659Z,18.13
2019-05-15T16:46:50.079Z,18.57
2019-05-15T16:49:54.409Z,18.25
2019-05-15T16:52:59.033Z,18.10
2019-05-15T16:56:04.647Z,18.18
2019-05-15T16:59:08.942Z,17.97
2019-05-15T17:02:13.541Z,17.97
2019-05-15T17:05:18.752Z,18.11
2019-05-15T17:08:23.240Z,17.68
2019-05-15T17:11:28.916Z,17.81
2019-05-15T17:14:33.347Z,17.61
2019-05-15T17:17:38.647Z,17.24
2019-05-15T17:20:43.980Z,16.98
2019-05-15T17:23:48.936Z,16.64
2019-05-15T17:26:53.623Z,16.28
2019-05-15T17:29:58.508Z,15.94
2019-05-15T17:33:03.037Z,15.96
2019-05-15T17:36:07.671Z,15.56
2019-05-15T17:39:12.354Z,15.48
2019-05-15T17:42:18.203Z,15.46
2019-05-15T17:45:22.713Z,15.41
2019-05-15T17:48:29.187Z,15.06
2019-05-15T17:51:33.596Z,15.18
2019-05-15T17:54:38.084Z,14.97
2019-05-15T17:57:42.746Z,14.92
2019-05-15T18:00:48.672Z,14.97
2019-05-15T18:03:54.329Z,14.84
2019-05-15T18:06:59.167Z,14.78
2019-05-15T18:10:03.680Z,14.83
2019-05-15T18:13:11.558Z,14.75
2019-05-15T18:16:18.080Z,14.71
2019-05-15T18:19:22.201Z,14.63
2019-05-15T18:22:26.646Z,14.64
2019-05-15T18:25:30.978Z,14.49
2019-05-15T18:28:35.351Z,14.42
2019-05-15T18:31:40.754Z,14.34
2019-05-15T18:34:45.229Z,14.16
2019-05-15T18:37:49.581Z,14.11
2019-05-15T18:40:54.179Z,14.12
2019-05-15T18:43:58.645Z,14.05
2019-05-15T18:47:03.194Z,13.99
2019-05-15T18:50:12.632Z,13.92
2019-05-15T18:53:14.328Z,13.93
2019-05-15T18:56:18.901Z,13.87
2019-05-15T18:59:23.356Z,13.75
2019-05-15T19:02:28.169Z,13.56
2019-05-15T19:05:32.946Z,13.46
2019-05-15T19:08:38.875Z,13.32
2019-05-15T19:11:43.591Z,13.17
2019-05-15T19:14:49.364Z,12.91
2019-05-15T19:17:54.578Z,12.91
2019-05-15T19:20:59.586Z,12.65
2019-05-15T19:24:07.600Z,12.65
2019-05-15T19:27:12.760Z,12.60
2019-05-15T19:30:19.097Z,12.44
2019-05-15T19:33:34.288Z,12.34
2019-05-15T19:36:31.922Z,12.24
2019-05-15T19:39:38.559Z,12.19
2019-05-15T19:42:42.958Z,11.92
2019-05-15T19:45:47.775Z,11.92
2019-05-15T19:48:52.511Z,11.76
2019-05-15T19:51:58.128Z,11.50
2019-05-15T19:55:02.825Z,11.36
2019-05-15T19:58:08.834Z,11.36
2019-05-15T20:01:14.485Z,11.31
2019-05-15T20:04:19.077Z,11.26
2019-05-15T20:07:23.631Z,11.21
2019-05-15T20:10:29.246Z,11.17
2019-05-15T20:13:33.949Z,11.06
2019-05-15T20:16:40.081Z,10.99
2019-05-15T20:19:44.689Z,10.94
2019-05-15T20:22:49.164Z,10.90
2019-05-15T20:25:54.810Z,10.87
2019-05-15T20:28:59.135Z,10.82
2019-05-15T20:32:03.535Z,10.75
2019-05-15T20:35:08.826Z,10.73
2019-05-15T20:38:13.546Z,10.71
2019-05-15T20:41:18.671Z,10.71
2019-05-15T20:44:24.164Z,10.69
2019-05-15T20:47:28.706Z,10.65
2019-05-15T20:50:33.036Z,10.60
2019-05-15T20:53:38.476Z,10.60
2019-05-15T20:56:44.601Z,10.57
2019-05-15T20:59:49.063Z,10.55
2019-05-15T21:02:54.444Z,10.55
2019-05-15T21:06:00.879Z,10.50
2019-05-15T21:09:05.572Z,10.47
2019-05-15T21:12:10.028Z,10.45
2019-05-15T21:15:16.958Z,10.44
2019-05-15T21:18:23.872Z,10.40
2019-05-15T21:21:28.210Z,10.40
2019-05-15T21:24:32.576Z,10.33
2019-05-15T21:27:41.260Z,10.29
2019-05-15T21:30:44.421Z,10.22
2019-05-15T21:33:50.455Z,10.15
2019-05-15T21:36:54.852Z,10.04
2019-05-15T21:39:59.247Z,10.11
2019-05-15T21:43:03.795Z,10.01
2019-05-15T21:46:09.917Z,9.98
2019-05-15T21:49:14.218Z,9.95
2019-05-15T21:52:20.629Z,9.89
2019-05-15T21:55:24.509Z,9.82
2019-05-15T21:58:28.993Z,9.77
2019-05-15T22:01:33.299Z,9.76
2019-05-15T22:04:49.056Z,9.72
2019-05-15T22:07:43.669Z,9.69
2019-05-15T22:10:48.336Z,9.65
2019-05-15T22:13:52.683Z,9.61
2019-05-15T22:16:59.982Z,9.58
2019-05-15T22:20:05.778Z,9.55
2019-05-15T22:23:11.911Z,9.59
2019-05-15T22:26:18.455Z,9.61
2019-05-15T22:29:22.718Z,9.62
2019-05-15T22:32:29.217Z,9.62
2019-05-15T22:35:34.001Z,9.48
2019-05-15T22:38:38.316Z,9.40
2019-05-15T22:41:42.611Z,9.46
2019-05-15T22:44:47.830Z,9.50
2019-05-15T22:47:52.205Z,9.44
2019-05-15T22:50:58.346Z,9.32
2019-05-15T22:54:02.734Z,9.21
2019-05-15T22:57:06.999Z,9.10
2019-05-15T23:00:11.893Z,9.02
2019-05-15T23:03:18.796Z,9.03
2019-05-15T23:06:22.281Z,9.03
2019-05-15T23:09:28.385Z,8.96
2019-05-15T23:12:32.603Z,8.93
2019-05-15T23:15:38.573Z,8.96
2019-05-15T23:18:42.983Z,8.94
2019-05-15T23:21:48.773Z,9.01
2019-05-15T23:24:53.142Z,8.92
2019-05-15T23:27:58.198Z,8.85
2019-05-15T23:31:02.709Z,8.86
2019-05-15T23:34:08.086Z,8.79
2019-05-15T23:37:12.456Z,8.75
2019-05-15T23:40:18.005Z,8.72
2019-05-15T23:43:22.431Z,8.65
2019-05-15T23:46:28.835Z,8.59
2019-05-15T23:49:35.623Z,8.54
2019-05-15T23:52:40.515Z,8.54
2019-05-15T23:55:44.863Z,8.54
2019-05-15T23:58:50.182Z,8.56
